sensor_id;sensor_type;location;lat;lon;timestamp;P1;durP1;ratioP1;P2;durP2;ratioP2
6626;SDS011;3349;49.830;8.748;2022-11-18T00:01:39;9.82;;;5.57;;
6626;SDS011;3349;49.830;8.748;2022-11-18T00:04:06;8.00;;;5.60;;
6626;SDS011;3349;49.830;8.748;2022-11-18T00:06:33;9.23;;;5.78;;
6626;SDS011;3349;49.830;8.748;2022-11-18T00:09:00;10.88;;;7.10;;
6626;SDS011;3349;49.830;8.748;2022-11-18T00:11:27;12.85;;;7.53;;
6626;SDS011;3349;49.830;8.748;2022-11-18T00:14:12;10.32;;;6.82;;
6626;SDS011;3349;49.830;8.748;2022-11-18T00:16:48;9.60;;;6.22;;
6626;SDS011;3349;49.830;8.748;2022-11-18T00:19:17;15.43;;;8.90;;
6626;SDS011;3349;49.830;8.748;2022-11-18T00:21:45;12.20;;;9.32;;
6626;SDS011;3349;49.830;8.748;2022-11-18T00:24:12;11.95;;;8.70;;
6626;SDS011;3349;49.830;8.748;2022-11-18T00:26:39;11.18;;;8.60;;
6626;SDS011;3349;49.830;8.748;2022-11-18T00:29:07;12.45;;;8.07;;
6626;SDS011;3349;49.830;8.748;2022-11-18T00:31:34;10.75;;;7.72;;
6626;SDS011;3349;49.830;8.748;2022-11-18T00:34:02;10.77;;;8.07;;
6626;SDS011;3349;49.830;8.748;2022-11-18T00:36:29;11.38;;;6.75;;
6626;SDS011;3349;49.830;8.748;2022-11-18T00:38:56;9.60;;;6.72;;
6626;SDS011;3349;49.830;8.748;2022-11-18T00:41:22;14.23;;;6.35;;
6626;SDS011;3349;49.830;8.748;2022-11-18T00:44:09;7.47;;;5.47;;
6626;SDS011;3349;49.830;8.748;2022-11-18T00:46:35;10.60;;;5.82;;
6626;SDS011;3349;49.830;8.748;2022-11-18T00:49:03;8.50;;;5.25;;
6626;SDS011;3349;49.830;8.748;2022-11-18T00:51:30;11.07;;;5.75;;
6626;SDS011;3349;49.830;8.748;2022-11-18T00:53:56;11.65;;;6.88;;
6626;SDS011;3349;49.830;8.748;2022-11-18T00:56:23;8.68;;;6.57;;
6626;SDS011;3349;49.830;8.748;2022-11-18T00:58:50;8.27;;;6.35;;
6626;SDS011;3349;49.830;8.748;2022-11-18T01:01:17;10.10;;;7.20;;
6626;SDS011;3349;49.830;8.748;2022-11-18T01:03:43;12.32;;;7.35;;
6626;SDS011;3349;49.830;8.748;2022-11-18T01:06:12;12.15;;;8.18;;
6626;SDS011;3349;49.830;8.748;2022-11-18T01:08:38;13.23;;;8.77;;
6626;SDS011;3349;49.830;8.748;2022-11-18T01:11:05;11.40;;;7.85;;
6626;SDS011;3349;49.830;8.748;2022-11-18T01:13:47;11.45;;;7.28;;
6626;SDS011;3349;49.830;8.748;2022-11-18T01:16:17;10.82;;;6.32;;
6626;SDS011;3349;49.830;8.748;2022-11-18T01:18:44;10.65;;;7.05;;
6626;SDS011;3349;49.830;8.748;2022-11-18T01:21:13;8.88;;;6.57;;
6626;SDS011;3349;49.830;8.748;2022-11-18T01:23:39;12.65;;;7.38;;
6626;SDS011;3349;49.830;8.748;2022-11-18T01:26:07;13.27;;;9.00;;
6626;SDS011;3349;49.830;8.748;2022-11-18T01:28:35;10.10;;;9.02;;
6626;SDS011;3349;49.830;8.748;2022-11-18T01:31:03;13.23;;;9.45;;
6626;SDS011;3349;49.830;8.748;2022-11-18T01:33:30;12.27;;;9.40;;
6626;SDS011;3349;49.830;8.748;2022-11-18T01:35:57;12.35;;;9.20;;
6626;SDS011;3349;49.830;8.748;2022-11-18T01:38:25;11.85;;;8.80;;
6626;SDS011;3349;49.830;8.748;2022-11-18T01:40:52;16.35;;;10.07;;
6626;SDS011;3349;49.830;8.748;2022-11-18T01:43:20;15.80;;;9.85;;
6626;SDS011;3349;49.830;8.748;2022-11-18T01:45:48;15.70;;;9.73;;
6626;SDS011;3349;49.830;8.748;2022-11-18T01:48:18;19.05;;;9.88;;
6626;SDS011;3349;49.830;8.748;2022-11-18T01:50:50;12.13;;;8.63;;
6626;SDS011;3349;49.830;8.748;2022-11-18T01:53:20;16.27;;;9.93;;
6626;SDS011;3349;49.830;8.748;2022-11-18T01:55:53;19.70;;;11.90;;
6626;SDS011;3349;49.830;8.748;2022-11-18T01:58:24;35.83;;;19.77;;
6626;SDS011;3349;49.830;8.748;2022-11-18T02:00:55;49.83;;;27.33;;
6626;SDS011;3349;49.830;8.748;2022-11-18T02:03:22;122.88;;;59.33;;
6626;SDS011;3349;49.830;8.748;2022-11-18T02:05:49;176.88;;;89.25;;
6626;SDS011;3349;49.830;8.748;2022-11-18T02:08:18;53.90;;;30.98;;
6626;SDS011;3349;49.830;8.748;2022-11-18T02:10:47;27.45;;;16.70;;
6626;SDS011;3349;49.830;8.748;2022-11-18T02:13:15;20.10;;;12.30;;
6626;SDS011;3349;49.830;8.748;2022-11-18T02:15:45;18.00;;;10.50;;
6626;SDS011;3349;49.830;8.748;2022-11-18T02:18:21;13.65;;;8.35;;
6626;SDS011;3349;49.830;8.748;2022-11-18T02:20:58;14.35;;;8.82;;
6626;SDS011;3349;49.830;8.748;2022-11-18T02:23:44;18.52;;;8.50;;
6626;SDS011;3349;49.830;8.748;2022-11-18T02:26:33;11.90;;;8.38;;
6626;SDS011;3349;49.830;8.748;2022-11-18T02:29:27;10.70;;;7.70;;
6626;SDS011;3349;49.830;8.748;2022-11-18T02:31:59;12.02;;;6.43;;
6626;SDS011;3349;49.830;8.748;2022-11-18T02:34:32;11.88;;;7.25;;
6626;SDS011;3349;49.830;8.748;2022-11-18T02:37:05;11.80;;;7.38;;
6626;SDS011;3349;49.830;8.748;2022-11-18T02:39:41;10.48;;;6.88;;
6626;SDS011;3349;49.830;8.748;2022-11-18T02:42:13;11.40;;;6.18;;
6626;SDS011;3349;49.830;8.748;2022-11-18T02:44:43;6.68;;;5.13;;
6626;SDS011;3349;49.830;8.748;2022-11-18T02:47:12;12.27;;;6.57;;
6626;SDS011;3349;49.830;8.748;2022-11-18T02:49:42;8.10;;;5.75;;
6626;SDS011;3349;49.830;8.748;2022-11-18T02:52:12;10.77;;;6.28;;
6626;SDS011;3349;49.830;8.748;2022-11-18T02:54:41;10.32;;;6.30;;
6626;SDS011;3349;49.830;8.748;2022-11-18T02:57:12;8.90;;;5.90;;
6626;SDS011;3349;49.830;8.748;2022-11-18T02:59:40;14.55;;;6.25;;
6626;SDS011;3349;49.830;8.748;2022-11-18T03:02:09;8.05;;;5.97;;
6626;SDS011;3349;49.830;8.748;2022-11-18T03:04:40;8.60;;;5.50;;
6626;SDS011;3349;49.830;8.748;2022-11-18T03:07:10;13.77;;;6.22;;
6626;SDS011;3349;49.830;8.748;2022-11-18T03:09:40;11.43;;;6.32;;
6626;SDS011;3349;49.830;8.748;2022-11-18T03:12:10;10.00;;;6.40;;
6626;SDS011;3349;49.830;8.748;2022-11-18T03:14:46;11.68;;;5.97;;
6626;SDS011;3349;49.830;8.748;2022-11-18T03:17:20;9.75;;;6.40;;
6626;SDS011;3349;49.830;8.748;2022-11-18T03:19:59;8.75;;;7.18;;
6626;SDS011;3349;49.830;8.748;2022-11-18T03:22:36;8.82;;;7.18;;
6626;SDS011;3349;49.830;8.748;2022-11-18T03:25:07;9.60;;;6.25;;
6626;SDS011;3349;49.830;8.748;2022-11-18T03:27:40;14.18;;;7.20;;
6626;SDS011;3349;49.830;8.748;2022-11-18T03:30:13;13.43;;;6.60;;
6626;SDS011;3349;49.830;8.748;2022-11-18T03:32:45;12.30;;;6.60;;
6626;SDS011;3349;49.830;8.748;2022-11-18T03:35:17;9.85;;;7.30;;
6626;SDS011;3349;49.830;8.748;2022-11-18T03:37:48;10.13;;;8.15;;
6626;SDS011;3349;49.830;8.748;2022-11-18T03:40:20;15.35;;;7.75;;
6626;SDS011;3349;49.830;8.748;2022-11-18T03:42:50;13.70;;;8.73;;
6626;SDS011;3349;49.830;8.748;2022-11-18T03:45:22;13.13;;;9.70;;
6626;SDS011;3349;49.830;8.748;2022-11-18T03:47:56;16.35;;;10.55;;
6626;SDS011;3349;49.830;8.748;2022-11-18T03:50:29;15.65;;;10.68;;
6626;SDS011;3349;49.830;8.748;2022-11-18T03:53:00;14.48;;;10.98;;
6626;SDS011;3349;49.830;8.748;2022-11-18T03:55:28;19.83;;;11.45;;
6626;SDS011;3349;49.830;8.748;2022-11-18T03:57:59;17.20;;;10.93;;
6626;SDS011;3349;49.830;8.748;2022-11-18T04:00:31;16.98;;;10.98;;
6626;SDS011;3349;49.830;8.748;2022-11-18T04:03:03;16.83;;;11.65;;
6626;SDS011;3349;49.830;8.748;2022-11-18T04:05:31;19.15;;;12.02;;
6626;SDS011;3349;49.830;8.748;2022-11-18T04:08:03;19.40;;;11.70;;
6626;SDS011;3349;49.830;8.748;2022-11-18T04:10:36;20.13;;;11.43;;
6626;SDS011;3349;49.830;8.748;2022-11-18T04:13:07;21.38;;;12.25;;
6626;SDS011;3349;49.830;8.748;2022-11-18T04:15:41;17.05;;;11.25;;
6626;SDS011;3349;49.830;8.748;2022-11-18T04:18:09;23.10;;;11.82;;
6626;SDS011;3349;49.830;8.748;2022-11-18T04:20:36;19.55;;;11.35;;
6626;SDS011;3349;49.830;8.748;2022-11-18T04:23:04;16.75;;;12.23;;
6626;SDS011;3349;49.830;8.748;2022-11-18T04:25:31;21.95;;;12.70;;
6626;SDS011;3349;49.830;8.748;2022-11-18T04:27:58;20.08;;;13.00;;
6626;SDS011;3349;49.830;8.748;2022-11-18T04:30:26;18.30;;;13.07;;
6626;SDS011;3349;49.830;8.748;2022-11-18T04:32:52;18.42;;;11.98;;
6626;SDS011;3349;49.830;8.748;2022-11-18T04:35:20;21.60;;;13.98;;
6626;SDS011;3349;49.830;8.748;2022-11-18T04:37:47;22.33;;;13.52;;
6626;SDS011;3349;49.830;8.748;2022-11-18T04:40:14;21.38;;;12.88;;
6626;SDS011;3349;49.830;8.748;2022-11-18T04:42:41;22.77;;;12.93;;
6626;SDS011;3349;49.830;8.748;2022-11-18T04:45:08;17.65;;;12.00;;
6626;SDS011;3349;49.830;8.748;2022-11-18T04:47:35;18.27;;;11.90;;
6626;SDS011;3349;49.830;8.748;2022-11-18T04:50:02;18.85;;;11.18;;
6626;SDS011;3349;49.830;8.748;2022-11-18T04:52:31;17.70;;;11.90;;
6626;SDS011;3349;49.830;8.748;2022-11-18T04:54:58;21.02;;;12.07;;
6626;SDS011;3349;49.830;8.748;2022-11-18T04:57:24;19.70;;;11.68;;
6626;SDS011;3349;49.830;8.748;2022-11-18T04:59:51;24.63;;;14.77;;
6626;SDS011;3349;49.830;8.748;2022-11-18T05:02:18;20.83;;;13.57;;
6626;SDS011;3349;49.830;8.748;2022-11-18T05:04:45;24.00;;;13.63;;
6626;SDS011;3349;49.830;8.748;2022-11-18T05:07:12;23.67;;;14.20;;
6626;SDS011;3349;49.830;8.748;2022-11-18T05:09:41;21.17;;;13.77;;
6626;SDS011;3349;49.830;8.748;2022-11-18T05:12:10;21.73;;;13.75;;
6626;SDS011;3349;49.830;8.748;2022-11-18T05:14:55;18.00;;;12.02;;
6626;SDS011;3349;49.830;8.748;2022-11-18T05:17:22;18.52;;;12.18;;
6626;SDS011;3349;49.830;8.748;2022-11-18T05:19:48;21.73;;;14.50;;
6626;SDS011;3349;49.830;8.748;2022-11-18T05:22:15;21.52;;;13.63;;
6626;SDS011;3349;49.830;8.748;2022-11-18T05:24:44;22.60;;;15.48;;
6626;SDS011;3349;49.830;8.748;2022-11-18T05:27:12;24.98;;;16.10;;
6626;SDS011;3349;49.830;8.748;2022-11-18T05:29:42;27.73;;;15.68;;
6626;SDS011;3349;49.830;8.748;2022-11-18T05:32:09;22.15;;;15.13;;
6626;SDS011;3349;49.830;8.748;2022-11-18T05:34:36;25.23;;;14.73;;
6626;SDS011;3349;49.830;8.748;2022-11-18T05:37:04;20.38;;;14.45;;
6626;SDS011;3349;49.830;8.748;2022-11-18T05:39:31;23.65;;;14.35;;
6626;SDS011;3349;49.830;8.748;2022-11-18T05:41:59;19.70;;;13.63;;
6626;SDS011;3349;49.830;8.748;2022-11-18T05:44:44;20.40;;;13.52;;
6626;SDS011;3349;49.830;8.748;2022-11-18T05:47:11;24.45;;;13.85;;
6626;SDS011;3349;49.830;8.748;2022-11-18T05:49:38;19.48;;;13.73;;
6626;SDS011;3349;49.830;8.748;2022-11-18T05:52:05;22.40;;;13.57;;
6626;SDS011;3349;49.830;8.748;2022-11-18T05:54:32;19.80;;;12.57;;
6626;SDS011;3349;49.830;8.748;2022-11-18T05:57:00;20.13;;;13.52;;
6626;SDS011;3349;49.830;8.748;2022-11-18T05:59:27;22.60;;;14.32;;
6626;SDS011;3349;49.830;8.748;2022-11-18T06:01:54;17.98;;;12.85;;
6626;SDS011;3349;49.830;8.748;2022-11-18T06:04:25;17.30;;;12.77;;
6626;SDS011;3349;49.830;8.748;2022-11-18T06:06:56;20.17;;;13.73;;
6626;SDS011;3349;49.830;8.748;2022-11-18T06:09:29;27.15;;;15.00;;
6626;SDS011;3349;49.830;8.748;2022-11-18T06:12:01;22.30;;;14.48;;
6626;SDS011;3349;49.830;8.748;2022-11-18T06:14:30;21.60;;;14.18;;
6626;SDS011;3349;49.830;8.748;2022-11-18T06:17:01;24.70;;;14.45;;
6626;SDS011;3349;49.830;8.748;2022-11-18T06:19:33;27.90;;;15.73;;
6626;SDS011;3349;49.830;8.748;2022-11-18T06:22:00;28.55;;;16.75;;
6626;SDS011;3349;49.830;8.748;2022-11-18T06:24:28;29.65;;;16.35;;
6626;SDS011;3349;49.830;8.748;2022-11-18T06:26:55;35.80;;;19.92;;
6626;SDS011;3349;49.830;8.748;2022-11-18T06:29:25;39.38;;;21.67;;
6626;SDS011;3349;49.830;8.748;2022-11-18T06:31:52;31.55;;;18.42;;
6626;SDS011;3349;49.830;8.748;2022-11-18T06:34:19;27.10;;;16.52;;
6626;SDS011;3349;49.830;8.748;2022-11-18T06:36:46;28.45;;;16.75;;
6626;SDS011;3349;49.830;8.748;2022-11-18T06:39:13;30.77;;;17.95;;
6626;SDS011;3349;49.830;8.748;2022-11-18T06:41:40;32.47;;;18.17;;
6626;SDS011;3349;49.830;8.748;2022-11-18T06:44:06;27.13;;;17.67;;
6626;SDS011;3349;49.830;8.748;2022-11-18T06:46:33;27.02;;;18.02;;
6626;SDS011;3349;49.830;8.748;2022-11-18T06:49:18;33.63;;;17.77;;
6626;SDS011;3349;49.830;8.748;2022-11-18T06:51:45;23.73;;;15.13;;
6626;SDS011;3349;49.830;8.748;2022-11-18T06:54:12;25.55;;;14.20;;
6626;SDS011;3349;49.830;8.748;2022-11-18T06:56:39;16.88;;;11.25;;
6626;SDS011;3349;49.830;8.748;2022-11-18T06:59:06;12.00;;;8.93;;
6626;SDS011;3349;49.830;8.748;2022-11-18T07:01:35;11.13;;;7.97;;
6626;SDS011;3349;49.830;8.748;2022-11-18T07:04:03;11.70;;;6.40;;
6626;SDS011;3349;49.830;8.748;2022-11-18T07:06:30;7.80;;;6.13;;
6626;SDS011;3349;49.830;8.748;2022-11-18T07:08:58;6.75;;;4.97;;
6626;SDS011;3349;49.830;8.748;2022-11-18T07:11:25;5.63;;;4.47;;
6626;SDS011;3349;49.830;8.748;2022-11-18T07:13:52;5.65;;;4.90;;
6626;SDS011;3349;49.830;8.748;2022-11-18T07:16:20;5.63;;;3.95;;
6626;SDS011;3349;49.830;8.748;2022-11-18T07:18:50;10.50;;;4.38;;
6626;SDS011;3349;49.830;8.748;2022-11-18T07:21:18;3.88;;;3.47;;
6626;SDS011;3349;49.830;8.748;2022-11-18T07:23:46;6.22;;;3.58;;
6626;SDS011;3349;49.830;8.748;2022-11-18T07:26:13;4.82;;;3.58;;
6626;SDS011;3349;49.830;8.748;2022-11-18T07:28:41;6.78;;;4.00;;
6626;SDS011;3349;49.830;8.748;2022-11-18T07:31:08;7.93;;;4.05;;
6626;SDS011;3349;49.830;8.748;2022-11-18T07:33:36;9.48;;;4.05;;
6626;SDS011;3349;49.830;8.748;2022-11-18T07:36:07;6.05;;;3.95;;
6626;SDS011;3349;49.830;8.748;2022-11-18T07:38:35;5.90;;;4.10;;
6626;SDS011;3349;49.830;8.748;2022-11-18T07:41:02;6.15;;;3.50;;
6626;SDS011;3349;49.830;8.748;2022-11-18T07:43:30;5.47;;;3.63;;
6626;SDS011;3349;49.830;8.748;2022-11-18T07:45:58;6.10;;;3.38;;
6626;SDS011;3349;49.830;8.748;2022-11-18T07:48:33;5.65;;;3.35;;
6626;SDS011;3349;49.830;8.748;2022-11-18T07:51:00;5.25;;;3.75;;
6626;SDS011;3349;49.830;8.748;2022-11-18T07:53:29;4.85;;;4.35;;
6626;SDS011;3349;49.830;8.748;2022-11-18T07:55:56;6.55;;;4.35;;
6626;SDS011;3349;49.830;8.748;2022-11-18T07:58:23;3.95;;;2.83;;
6626;SDS011;3349;49.830;8.748;2022-11-18T08:00:50;4.47;;;2.80;;
6626;SDS011;3349;49.830;8.748;2022-11-18T08:03:16;5.78;;;3.60;;
6626;SDS011;3349;49.830;8.748;2022-11-18T08:05:43;6.57;;;4.60;;
6626;SDS011;3349;49.830;8.748;2022-11-18T08:08:10;7.43;;;3.63;;
6626;SDS011;3349;49.830;8.748;2022-11-18T08:10:38;6.00;;;3.72;;
6626;SDS011;3349;49.830;8.748;2022-11-18T08:13:06;5.38;;;3.17;;
6626;SDS011;3349;49.830;8.748;2022-11-18T08:15:32;5.55;;;2.90;;
6626;SDS011;3349;49.830;8.748;2022-11-18T08:17:59;2.92;;;2.63;;
6626;SDS011;3349;49.830;8.748;2022-11-18T08:20:26;3.42;;;2.70;;
6626;SDS011;3349;49.830;8.748;2022-11-18T08:22:53;2.88;;;2.03;;
6626;SDS011;3349;49.830;8.748;2022-11-18T08:25:21;3.13;;;1.75;;
6626;SDS011;3349;49.830;8.748;2022-11-18T08:27:49;4.55;;;2.10;;
6626;SDS011;3349;49.830;8.748;2022-11-18T08:30:17;4.57;;;2.03;;
6626;SDS011;3349;49.830;8.748;2022-11-18T08:32:43;2.53;;;2.25;;
6626;SDS011;3349;49.830;8.748;2022-11-18T08:35:10;4.03;;;1.80;;
6626;SDS011;3349;49.830;8.748;2022-11-18T08:37:37;3.72;;;2.38;;
6626;SDS011;3349;49.830;8.748;2022-11-18T08:40:04;6.40;;;4.28;;
6626;SDS011;3349;49.830;8.748;2022-11-18T08:42:32;4.90;;;3.65;;
6626;SDS011;3349;49.830;8.748;2022-11-18T08:45:00;5.38;;;3.60;;
6626;SDS011;3349;49.830;8.748;2022-11-18T08:47:28;4.20;;;2.10;;
6626;SDS011;3349;49.830;8.748;2022-11-18T08:49:55;3.40;;;2.63;;
6626;SDS011;3349;49.830;8.748;2022-11-18T08:52:21;3.75;;;2.40;;
6626;SDS011;3349;49.830;8.748;2022-11-18T08:54:48;3.00;;;2.50;;
6626;SDS011;3349;49.830;8.748;2022-11-18T08:57:15;3.00;;;2.70;;
6626;SDS011;3349;49.830;8.748;2022-11-18T08:59:42;4.07;;;2.80;;
6626;SDS011;3349;49.830;8.748;2022-11-18T09:02:13;5.05;;;2.40;;
6626;SDS011;3349;49.830;8.748;2022-11-18T09:04:40;2.80;;;1.60;;
6626;SDS011;3349;49.830;8.748;2022-11-18T09:07:07;2.08;;;1.65;;
6626;SDS011;3349;49.830;8.748;2022-11-18T09:09:34;3.25;;;1.90;;
6626;SDS011;3349;49.830;8.748;2022-11-18T09:12:01;1.45;;;1.35;;
6626;SDS011;3349;49.830;8.748;2022-11-18T09:14:28;3.60;;;1.90;;
6626;SDS011;3349;49.830;8.748;2022-11-18T09:16:55;2.55;;;1.50;;
6626;SDS011;3349;49.830;8.748;2022-11-18T09:19:23;2.28;;;1.50;;
6626;SDS011;3349;49.830;8.748;2022-11-18T09:21:50;1.40;;;1.30;;
6626;SDS011;3349;49.830;8.748;2022-11-18T09:24:17;1.98;;;1.45;;
6626;SDS011;3349;49.830;8.748;2022-11-18T09:26:44;3.90;;;1.75;;
6626;SDS011;3349;49.830;8.748;2022-11-18T09:29:12;1.83;;;1.58;;
6626;SDS011;3349;49.830;8.748;2022-11-18T09:31:38;2.95;;;1.60;;
6626;SDS011;3349;49.830;8.748;2022-11-18T09:34:05;4.28;;;1.50;;
6626;SDS011;3349;49.830;8.748;2022-11-18T09:36:35;2.72;;;2.00;;
6626;SDS011;3349;49.830;8.748;2022-11-18T09:39:02;2.25;;;1.80;;
6626;SDS011;3349;49.830;8.748;2022-11-18T09:41:40;4.38;;;2.20;;
6626;SDS011;3349;49.830;8.748;2022-11-18T09:44:17;2.25;;;1.90;;
6626;SDS011;3349;49.830;8.748;2022-11-18T09:46:58;3.72;;;2.83;;
6626;SDS011;3349;49.830;8.748;2022-11-18T09:49:30;2.33;;;2.08;;
6626;SDS011;3349;49.830;8.748;2022-11-18T09:52:02;5.82;;;2.20;;
6626;SDS011;3349;49.830;8.748;2022-11-18T09:54:35;4.88;;;3.20;;
6626;SDS011;3349;49.830;8.748;2022-11-18T09:57:07;4.72;;;2.50;;
6626;SDS011;3349;49.830;8.748;2022-11-18T09:59:38;4.13;;;2.50;;
6626;SDS011;3349;49.830;8.748;2022-11-18T10:02:13;2.97;;;2.63;;
6626;SDS011;3349;49.830;8.748;2022-11-18T10:04:53;4.93;;;3.05;;
6626;SDS011;3349;49.830;8.748;2022-11-18T10:07:23;5.70;;;3.40;;
6626;SDS011;3349;49.830;8.748;2022-11-18T10:09:57;3.22;;;2.92;;
6626;SDS011;3349;49.830;8.748;2022-11-18T10:12:31;4.97;;;3.67;;
6626;SDS011;3349;49.830;8.748;2022-11-18T10:15:05;3.83;;;3.40;;
6626;SDS011;3349;49.830;8.748;2022-11-18T10:17:45;5.97;;;3.72;;
6626;SDS011;3349;49.830;8.748;2022-11-18T10:20:26;3.88;;;3.17;;
6626;SDS011;3349;49.830;8.748;2022-11-18T10:23:02;3.42;;;3.13;;
6626;SDS011;3349;49.830;8.748;2022-11-18T10:25:33;4.28;;;3.08;;
6626;SDS011;3349;49.830;8.748;2022-11-18T10:28:01;4.85;;;3.40;;
6626;SDS011;3349;49.830;8.748;2022-11-18T10:30:40;6.47;;;3.70;;
6626;SDS011;3349;49.830;8.748;2022-11-18T10:33:16;5.28;;;3.30;;
6626;SDS011;3349;49.830;8.748;2022-11-18T10:35:49;4.63;;;3.45;;
6626;SDS011;3349;49.830;8.748;2022-11-18T10:38:18;4.78;;;3.25;;
6626;SDS011;3349;49.830;8.748;2022-11-18T10:40:54;5.97;;;3.28;;
6626;SDS011;3349;49.830;8.748;2022-11-18T10:46:15;5.90;;;3.85;;
6626;SDS011;3349;49.830;8.748;2022-11-18T10:48:44;4.18;;;3.45;;
6626;SDS011;3349;49.830;8.748;2022-11-18T10:51:21;5.20;;;3.65;;
6626;SDS011;3349;49.830;8.748;2022-11-18T10:53:50;13.00;;;3.90;;
6626;SDS011;3349;49.830;8.748;2022-11-18T10:56:17;4.38;;;2.95;;
6626;SDS011;3349;49.830;8.748;2022-11-18T10:58:44;6.72;;;4.70;;
6626;SDS011;3349;49.830;8.748;2022-11-18T11:01:18;4.75;;;4.05;;
6626;SDS011;3349;49.830;8.748;2022-11-18T11:03:51;4.88;;;3.67;;
6626;SDS011;3349;49.830;8.748;2022-11-18T11:06:28;6.57;;;3.95;;
6626;SDS011;3349;49.830;8.748;2022-11-18T11:08:59;4.90;;;4.40;;
6626;SDS011;3349;49.830;8.748;2022-11-18T11:11:28;6.18;;;4.93;;
6626;SDS011;3349;49.830;8.748;2022-11-18T11:14:10;6.45;;;4.78;;
6626;SDS011;3349;49.830;8.748;2022-11-18T11:16:44;4.50;;;3.83;;
6626;SDS011;3349;49.830;8.748;2022-11-18T11:19:17;5.20;;;3.80;;
6626;SDS011;3349;49.830;8.748;2022-11-18T11:21:48;4.90;;;4.40;;
6626;SDS011;3349;49.830;8.748;2022-11-18T11:24:17;5.65;;;4.20;;
6626;SDS011;3349;49.830;8.748;2022-11-18T11:26:45;5.55;;;4.72;;
6626;SDS011;3349;49.830;8.748;2022-11-18T11:29:22;5.40;;;4.53;;
6626;SDS011;3349;49.830;8.748;2022-11-18T11:32:01;6.50;;;4.10;;
6626;SDS011;3349;49.830;8.748;2022-11-18T11:34:36;5.05;;;4.15;;
6626;SDS011;3349;49.830;8.748;2022-11-18T11:37:12;5.38;;;3.83;;
6626;SDS011;3349;49.830;8.748;2022-11-18T11:39:49;6.18;;;4.22;;
6626;SDS011;3349;49.830;8.748;2022-11-18T11:42:26;6.10;;;4.40;;
6626;SDS011;3349;49.830;8.748;2022-11-18T11:45:04;5.43;;;3.80;;
6626;SDS011;3349;49.830;8.748;2022-11-18T11:47:45;4.28;;;3.88;;
6626;SDS011;3349;49.830;8.748;2022-11-18T11:50:22;6.40;;;3.83;;
6626;SDS011;3349;49.830;8.748;2022-11-18T11:52:58;4.10;;;3.65;;
6626;SDS011;3349;49.830;8.748;2022-11-18T11:55:44;5.53;;;4.20;;
6626;SDS011;3349;49.830;8.748;2022-11-18T11:58:20;5.72;;;3.55;;
6626;SDS011;3349;49.830;8.748;2022-11-18T12:01:04;2.90;;;2.70;;
6626;SDS011;3349;49.830;8.748;2022-11-18T12:03:43;5.78;;;3.00;;
6626;SDS011;3349;49.830;8.748;2022-11-18T12:06:11;3.70;;;3.10;;
6626;SDS011;3349;49.830;8.748;2022-11-18T12:08:39;4.85;;;3.38;;
6626;SDS011;3349;49.830;8.748;2022-11-18T12:11:16;4.75;;;2.83;;
6626;SDS011;3349;49.830;8.748;2022-11-18T12:13:52;2.97;;;2.65;;
6626;SDS011;3349;49.830;8.748;2022-11-18T12:16:24;3.65;;;2.95;;
6626;SDS011;3349;49.830;8.748;2022-11-18T12:18:58;3.55;;;2.25;;
6626;SDS011;3349;49.830;8.748;2022-11-18T12:24:24;3.65;;;2.90;;
6626;SDS011;3349;49.830;8.748;2022-11-18T12:27:00;4.28;;;2.75;;
6626;SDS011;3349;49.830;8.748;2022-11-18T12:29:30;5.40;;;2.25;;
6626;SDS011;3349;49.830;8.748;2022-11-18T12:32:01;6.70;;;3.10;;
6626;SDS011;3349;49.830;8.748;2022-11-18T12:34:30;5.25;;;2.80;;
6626;SDS011;3349;49.830;8.748;2022-11-18T12:40:08;3.85;;;2.63;;
6626;SDS011;3349;49.830;8.748;2022-11-18T12:42:41;3.38;;;2.70;;
6626;SDS011;3349;49.830;8.748;2022-11-18T12:57:01;4.35;;;3.05;;
6626;SDS011;3349;49.830;8.748;2022-11-18T12:59:32;4.95;;;2.85;;
6626;SDS011;3349;49.830;8.748;2022-11-18T13:02:05;4.05;;;3.15;;
6626;SDS011;3349;49.830;8.748;2022-11-18T13:05:01;4.80;;;3.28;;
6626;SDS011;3349;49.830;8.748;2022-11-18T13:07:32;5.47;;;3.35;;
6626;SDS011;3349;49.830;8.748;2022-11-18T13:10:22;5.20;;;3.67;;
6626;SDS011;3349;49.830;8.748;2022-11-18T13:12:52;5.40;;;3.70;;
6626;SDS011;3349;49.830;8.748;2022-11-18T13:15:21;3.20;;;2.88;;
6626;SDS011;3349;49.830;8.748;2022-11-18T13:18:09;5.88;;;3.30;;
6626;SDS011;3349;49.830;8.748;2022-11-18T13:20:40;4.45;;;3.08;;
6626;SDS011;3349;49.830;8.748;2022-11-18T13:23:22;4.95;;;3.55;;
6626;SDS011;3349;49.830;8.748;2022-11-18T13:26:13;4.07;;;3.20;;
6626;SDS011;3349;49.830;8.748;2022-11-18T13:28:45;4.35;;;3.42;;
6626;SDS011;3349;49.830;8.748;2022-11-18T13:31:31;3.75;;;3.30;;
6626;SDS011;3349;49.830;8.748;2022-11-18T13:34:07;5.85;;;3.38;;
6626;SDS011;3349;49.830;8.748;2022-11-18T13:36:42;5.72;;;3.58;;
6626;SDS011;3349;49.830;8.748;2022-11-18T13:39:11;5.15;;;3.08;;
6626;SDS011;3349;49.830;8.748;2022-11-18T13:41:45;5.45;;;2.80;;
6626;SDS011;3349;49.830;8.748;2022-11-18T13:44:14;3.63;;;2.38;;
6626;SDS011;3349;49.830;8.748;2022-11-18T13:46:45;7.68;;;2.97;;
6626;SDS011;3349;49.830;8.748;2022-11-18T13:49:16;5.38;;;2.92;;
6626;SDS011;3349;49.830;8.748;2022-11-18T13:51:47;4.53;;;2.47;;
6626;SDS011;3349;49.830;8.748;2022-11-18T13:54:17;6.15;;;2.50;;
6626;SDS011;3349;49.830;8.748;2022-11-18T13:56:47;4.40;;;2.72;;
6626;SDS011;3349;49.830;8.748;2022-11-18T13:59:14;6.32;;;3.42;;
6626;SDS011;3349;49.830;8.748;2022-11-18T14:01:46;10.85;;;5.00;;
6626;SDS011;3349;49.830;8.748;2022-11-18T14:04:19;9.32;;;4.63;;
6626;SDS011;3349;49.830;8.748;2022-11-18T14:06:48;5.47;;;3.40;;
6626;SDS011;3349;49.830;8.748;2022-11-18T14:09:17;4.30;;;3.08;;
6626;SDS011;3349;49.830;8.748;2022-11-18T14:11:56;11.32;;;2.53;;
6626;SDS011;3349;49.830;8.748;2022-11-18T14:14:28;4.65;;;2.60;;
6626;SDS011;3349;49.830;8.748;2022-11-18T14:17:03;6.55;;;2.63;;
6626;SDS011;3349;49.830;8.748;2022-11-18T14:19:40;4.45;;;2.10;;
6626;SDS011;3349;49.830;8.748;2022-11-18T14:22:10;4.47;;;2.30;;
6626;SDS011;3349;49.830;8.748;2022-11-18T14:24:40;5.47;;;2.38;;
6626;SDS011;3349;49.830;8.748;2022-11-18T14:29:53;7.78;;;2.30;;
6626;SDS011;3349;49.830;8.748;2022-11-18T14:32:22;5.07;;;2.38;;
6626;SDS011;3349;49.830;8.748;2022-11-18T14:34:55;5.72;;;2.67;;
6626;SDS011;3349;49.830;8.748;2022-11-18T14:37:23;5.22;;;2.55;;
6626;SDS011;3349;49.830;8.748;2022-11-18T14:39:53;7.25;;;2.65;;
6626;SDS011;3349;49.830;8.748;2022-11-18T14:42:20;7.25;;;3.30;;
6626;SDS011;3349;49.830;8.748;2022-11-18T14:44:47;4.35;;;2.85;;
6626;SDS011;3349;49.830;8.748;2022-11-18T14:47:23;7.88;;;2.70;;
6626;SDS011;3349;49.830;8.748;2022-11-18T14:49:54;4.43;;;2.78;;
6626;SDS011;3349;49.830;8.748;2022-11-18T14:52:21;6.47;;;3.55;;
6626;SDS011;3349;49.830;8.748;2022-11-18T14:54:47;5.13;;;3.03;;
6626;SDS011;3349;49.830;8.748;2022-11-18T14:57:16;6.53;;;3.40;;
6626;SDS011;3349;49.830;8.748;2022-11-18T14:59:43;9.57;;;3.60;;
6626;SDS011;3349;49.830;8.748;2022-11-18T15:02:11;8.20;;;3.85;;
6626;SDS011;3349;49.830;8.748;2022-11-18T15:04:41;9.05;;;4.40;;
6626;SDS011;3349;49.830;8.748;2022-11-18T15:07:08;6.38;;;4.15;;
6626;SDS011;3349;49.830;8.748;2022-11-18T15:09:38;6.05;;;3.67;;
6626;SDS011;3349;49.830;8.748;2022-11-18T15:12:05;5.88;;;3.88;;
6626;SDS011;3349;49.830;8.748;2022-11-18T15:14:32;7.05;;;3.80;;
6626;SDS011;3349;49.830;8.748;2022-11-18T15:16:59;5.88;;;4.57;;
6626;SDS011;3349;49.830;8.748;2022-11-18T15:19:26;10.80;;;5.80;;
6626;SDS011;3349;49.830;8.748;2022-11-18T15:21:54;9.05;;;4.93;;
6626;SDS011;3349;49.830;8.748;2022-11-18T15:24:21;10.50;;;6.65;;
6626;SDS011;3349;49.830;8.748;2022-11-18T15:26:48;12.27;;;7.00;;
6626;SDS011;3349;49.830;8.748;2022-11-18T15:29:16;7.63;;;5.07;;
6626;SDS011;3349;49.830;8.748;2022-11-18T15:31:44;8.55;;;4.47;;
6626;SDS011;3349;49.830;8.748;2022-11-18T15:34:11;8.93;;;4.10;;
6626;SDS011;3349;49.830;8.748;2022-11-18T15:36:41;9.60;;;4.30;;
6626;SDS011;3349;49.830;8.748;2022-11-18T15:39:09;8.18;;;4.88;;
6626;SDS011;3349;49.830;8.748;2022-11-18T15:41:37;7.15;;;4.28;;
6626;SDS011;3349;49.830;8.748;2022-11-18T15:44:05;10.70;;;4.53;;
6626;SDS011;3349;49.830;8.748;2022-11-18T15:46:32;6.38;;;4.38;;
6626;SDS011;3349;49.830;8.748;2022-11-18T15:48:59;9.10;;;4.85;;